Richmond, Virginia
Current Conditions -  °F | °C
As of 11:18 PM on Tuesday 21 Oct 2014 (Local Time) from KRIC Reporting Station
Overcast Overcast  
Wind Chill: 13°   Ceiling: 1600
Heat Index: 13°   Visibility: 10mi
Dew Point: 11°   Wind: 10mph
Humidity: 88%   Direction: 340°NNW
Pressure: 29.9"   Gusts: NA
Location:  37.54°N, 77.43°W
Report Text: KRIC 220318Z 34009KT 10SM BKN016 BKN100 OVC120 13/11 A2990 RMK AO2
Loading
Personal Weather Stations






























Interactive Weather Map New forecast layout! Learn more

10-Day Weather Forecast

Advertisements
Track Severe Weather on mobile